Fairchem Charger — V7RD4 — position and weather

sailwx.info

Track history (hours):
 
Tides and Currents Weather Stations Pressure Air Temp Water Temp Dewpoint Dewpoint Depression Visibility Wind Speed Wind Dir Waves Ship Positions

Fairchem Charger

Last reported at 2018-Jun-17 16:34 UTC. Time now 2018-Jul-19 18:44 UTC.
Position N 47°45' W 126°29'.
Warning: this ship's position is 32 days out of date.

Length 146 m; draft 5.9 m.

Type: Tanker. MMSI: 538003481.

Date/timePositionNaut miles runAvg speedWind from/ knotsBaromVisibWave heightAir tempDewpointWater temp
2018-Jun-17 16:34N 47°45' W 126°29'111.9
2018-Jun-17 16:28N 47°46' W 126°28'1212.0
2018-Jun-17 15:26N 47°53' W 126°13'512.1
2018-Jun-17 15:00N 47°56' W 126°07'1712.0
2018-Jun-17 13:38N 48°06' W 125°46'211.7
2018-Jun-17 13:29N 48°07' W 125°44'611.6
2018-Jun-17 12:59N 48°10' W 125°37'711.4
2018-Jun-17 12:25N 48°14' W 125°29'511.4
2018-Jun-17 12:00N 48°16' W 125°23'611.6
2018-Jun-17 11:30N 48°20' W 125°16'611.8
2018-Jun-17 11:00N 48°23' W 125°09'711.5
2018-Jun-17 10:26N 48°28' W 125°03'511.0
2018-Jun-17 10:00N 48°31' W 124°57'612.5
2018-Jun-17 09:30N 48°31' W 124°48'612.4
2018-Jun-17 09:00N 48°29' W 124°39'612.9
2018-Jun-17 08:30N 48°27' W 124°30'612.9
2018-Jun-17 08:00N 48°24' W 124°21'712.9
2018-Jun-17 07:30N 48°22' W 124°12'612.4
2018-Jun-17 06:59N 48°19' W 124°03'2811.2
2018-Jun-17 04:26N 48°23' W 123°20'512.1
2018-Jun-17 04:00N 48°25' W 123°13'612.5
2018-Jun-17 03:30N 48°31' W 123°13'510.4
2018-Jun-17 03:00N 48°36' W 123°14'5 9.8
2018-Jun-17 02:30N 48°41' W 123°15'4 8.4
2018-Jun-17 02:00N 48°44' W 123°10'11 7.2
2018-Jun-17 00:28N 48°55' W 123°09'613.1
2018-Jun-16 23:59N 48°59' W 123°17'2010.4
2018-Jun-16 22:04N 49°19' W 123°15'113.0
2018-Jun-16 22:00N 49°19' W 123°14'5 9.1
2018-Jun-16 21:30N 49°19' W 123°07'0 0.0
2018-Jun-15 22:03N 49°19' W 123°07'0 0.5
2018-Jun-15 21:59N 49°19' W 123°07'1 1.2
2018-Jun-15 21:28N 49°18' W 123°07'1 1.3
2018-Jun-15 20:58N 49°18' W 123°06'0 0.2
2018-Jun-15 20:28N 49°18' W 123°06'0 0.1
2018-Jun-15 19:58N 49°18' W 123°06'0 0.0
2018-Jun-15 19:28N 49°18' W 123°06'0 0.1
2018-Jun-15 18:58N 49°18' W 123°06'0 0.1
2018-Jun-15 18:28N 49°18' W 123°06'0 0.0
2018-Jun-15 17:58N 49°18' W 123°06'0 0.1
2018-Jun-15 17:28N 49°18' W 123°06'0 0.1
2018-Jun-15 16:58N 49°18' W 123°06'0 0.1
2018-Jun-15 16:28N 49°18' W 123°06'0 0.0
2018-Jun-15 15:58N 49°18' W 123°06'0 0.0
2018-Jun-15 15:28N 49°18' W 123°06'0 0.0
2018-Jun-15 14:58N 49°18' W 123°06'0 0.0
2018-Jun-15 14:28N 49°18' W 123°06'0 0.2
2018-Jun-15 13:58N 49°18' W 123°05'0 0.0
2018-Jun-15 13:28N 49°18' W 123°05'0 0.1
2018-Jun-15 12:55N 49°18' W 123°05'0 0.1
2018-Jun-15 12:28N 49°18' W 123°05'0 0.1
2018-Jun-15 11:58N 49°18' W 123°05'0 0.1
2018-Jun-15 11:28N 49°18' W 123°05'0 0.1
2018-Jun-15 10:55N 49°18' W 123°05'0 0.0
2018-Jun-15 10:28N 49°18' W 123°05'0 0.3
2018-Jun-15 09:55N 49°18' W 123°06'0 0.0
2018-Jun-15 09:28N 49°18' W 123°06'0 0.1
2018-Jun-15 08:58N 49°18' W 123°06'0 0.0
2018-Jun-15 08:28N 49°18' W 123°06'0 0.1
2018-Jun-15 07:58N 49°18' W 123°06'0 0.0
2018-Jun-15 07:28N 49°18' W 123°06'0 0.1
2018-Jun-15 06:58N 49°18' W 123°06'0 0.1
2018-Jun-15 06:25N 49°18' W 123°06'0 0.0
2018-Jun-15 05:58N 49°18' W 123°06'0 0.0
2018-Jun-15 05:28N 49°18' W 123°06'0 0.2
2018-Jun-15 04:58N 49°18' W 123°05'0 0.2
2018-Jun-15 04:28N 49°18' W 123°05'0 0.1
2018-Jun-15 03:58N 49°18' W 123°05'0 0.0
2018-Jun-15 03:28N 49°18' W 123°05'0 0.0
2018-Jun-15 02:58N 49°18' W 123°05'0 0.1
2018-Jun-15 02:25N 49°18' W 123°05'0 0.0
2018-Jun-15 01:58N 49°18' W 123°05'0 0.1
2018-Jun-15 01:28N 49°18' W 123°05'0 0.3
2018-Jun-15 00:58N 49°18' W 123°06'0 0.0
2018-Jun-15 00:28N 49°18' W 123°06'0 0.1
2018-Jun-14 23:58N 49°18' W 123°06'0 0.1
2018-Jun-14 23:28N 49°18' W 123°06'0 0.0
2018-Jun-14 22:58N 49°18' W 123°06'0 0.2
2018-Jun-14 22:28N 49°18' W 123°06'0 0.0
2018-Jun-14 21:58N 49°18' W 123°06'0 0.1
2018-Jun-14 21:28N 49°18' W 123°06'0 0.0
2018-Jun-14 20:58N 49°18' W 123°06'0 0.0
2018-Jun-14 20:28N 49°18' W 123°06'0 0.1
2018-Jun-14 19:58N 49°18' W 123°06'0 0.1
2018-Jun-14 19:28N 49°18' W 123°06'0 0.1
2018-Jun-14 18:58N 49°18' W 123°06'0 0.0
2018-Jun-14 18:28N 49°18' W 123°06'0 0.0
2018-Jun-14 17:58N 49°18' W 123°06'0 0.0
2018-Jun-14 17:28N 49°18' W 123°06'0 0.0
2018-Jun-14 16:58N 49°18' W 123°06'0 0.0
2018-Jun-14 16:28N 49°18' W 123°06'0 0.1
2018-Jun-14 16:00N 49°18' W 123°06'1 1.1
2018-Jun-14 15:30N 49°18' W 123°06'3 6.5
2018-Jun-14 15:00N 49°19' W 123°11'510.0
2018-Jun-14 14:29N 49°16' W 123°18'611.5
2018-Jun-14 13:59N 49°11' W 123°20'611.3
2018-Jun-14 13:28N 49°05' W 123°20'711.5
2018-Jun-14 12:52N 48°60' W 123°13'411.6
2018-Jun-14 12:30N 48°57' W 123°09'1110.0
2018-Jun-14 11:21N 48°46' W 123°03'412.6
2018-Jun-14 11:00N 48°44' W 123°09'510.9
2018-Jun-14 10:30N 48°40' W 123°15'612.5
2018-Jun-14 10:00N 48°34' W 123°13'612.7
2018-Jun-14 09:30N 48°28' W 123°10'612.0
2018-Jun-14 09:01N 48°23' W 123°15'510.0
2018-Jun-14 08:31N 48°22' W 123°23'811.0
2018-Jun-14 07:48N 48°14' W 123°26'3311.4
2018-Jun-14 04:54N 48°20' W 124°16'511.5
2018-Jun-14 04:29N 48°22' W 124°22'611.5
2018-Jun-14 04:01N 48°24' W 124°30'611.4
2018-Jun-14 03:31N 48°27' W 124°37'611.1
2018-Jun-14 03:00N 48°29' W 124°45'611.2
2018-Jun-14 02:30N 48°29' W 124°54'  
Track history (hours):
 
Tides and Currents Weather Stations Pressure Air Temp Water Temp Dewpoint Dewpoint Depression Visibility Wind Speed Wind Dir Waves Ship Positions

Fairchem Charger

Last reported at 2018-Jun-17 16:34 UTC. Time now 2018-Jul-19 18:44 UTC.
Position N 47°45' W 126°29'.
Warning: this ship's position is 32 days out of date.

Length 146 m; draft 5.9 m.

Type: Tanker. MMSI: 538003481.

Date/timePositionNaut miles runAvg speedWind from/ knotsBaromVisibWave heightAir tempDewpointWater temp
2018-Jun-17 16:34N 47°45' W 126°29'111.9
2018-Jun-17 16:28N 47°46' W 126°28'1212.0
2018-Jun-17 15:26N 47°53' W 126°13'512.1
2018-Jun-17 15:00N 47°56' W 126°07'1712.0
2018-Jun-17 13:38N 48°06' W 125°46'211.7
2018-Jun-17 13:29N 48°07' W 125°44'611.6
2018-Jun-17 12:59N 48°10' W 125°37'711.4
2018-Jun-17 12:25N 48°14' W 125°29'511.4
2018-Jun-17 12:00N 48°16' W 125°23'611.6
2018-Jun-17 11:30N 48°20' W 125°16'611.8
2018-Jun-17 11:00N 48°23' W 125°09'711.5
2018-Jun-17 10:26N 48°28' W 125°03'511.0
2018-Jun-17 10:00N 48°31' W 124°57'612.5
2018-Jun-17 09:30N 48°31' W 124°48'612.4
2018-Jun-17 09:00N 48°29' W 124°39'612.9
2018-Jun-17 08:30N 48°27' W 124°30'612.9
2018-Jun-17 08:00N 48°24' W 124°21'712.9
2018-Jun-17 07:30N 48°22' W 124°12'612.4
2018-Jun-17 06:59N 48°19' W 124°03'2811.2
2018-Jun-17 04:26N 48°23' W 123°20'512.1
2018-Jun-17 04:00N 48°25' W 123°13'612.5
2018-Jun-17 03:30N 48°31' W 123°13'510.4
2018-Jun-17 03:00N 48°36' W 123°14'5 9.8
2018-Jun-17 02:30N 48°41' W 123°15'4 8.4
2018-Jun-17 02:00N 48°44' W 123°10'11 7.2
2018-Jun-17 00:28N 48°55' W 123°09'613.1
2018-Jun-16 23:59N 48°59' W 123°17'2010.4
2018-Jun-16 22:04N 49°19' W 123°15'113.0
2018-Jun-16 22:00N 49°19' W 123°14'5 9.1
2018-Jun-16 21:30N 49°19' W 123°07'0 0.0
2018-Jun-15 22:03N 49°19' W 123°07'0 0.5
2018-Jun-15 21:59N 49°19' W 123°07'1 1.2
2018-Jun-15 21:28N 49°18' W 123°07'1 1.3
2018-Jun-15 20:58N 49°18' W 123°06'0 0.2
2018-Jun-15 20:28N 49°18' W 123°06'0 0.1
2018-Jun-15 19:58N 49°18' W 123°06'0 0.0
2018-Jun-15 19:28N 49°18' W 123°06'0 0.1
2018-Jun-15 18:58N 49°18' W 123°06'0 0.1
2018-Jun-15 18:28N 49°18' W 123°06'0 0.0
2018-Jun-15 17:58N 49°18' W 123°06'0 0.1
2018-Jun-15 17:28N 49°18' W 123°06'0 0.1
2018-Jun-15 16:58N 49°18' W 123°06'0 0.1
2018-Jun-15 16:28N 49°18' W 123°06'0 0.0
2018-Jun-15 15:58N 49°18' W 123°06'0 0.0
2018-Jun-15 15:28N 49°18' W 123°06'0 0.0
2018-Jun-15 14:58N 49°18' W 123°06'0 0.0
2018-Jun-15 14:28N 49°18' W 123°06'0 0.2
2018-Jun-15 13:58N 49°18' W 123°05'0 0.0
2018-Jun-15 13:28N 49°18' W 123°05'0 0.1
2018-Jun-15 12:55N 49°18' W 123°05'0 0.1
2018-Jun-15 12:28N 49°18' W 123°05'0 0.1
2018-Jun-15 11:58N 49°18' W 123°05'0 0.1
2018-Jun-15 11:28N 49°18' W 123°05'0 0.1
2018-Jun-15 10:55N 49°18' W 123°05'0 0.0
2018-Jun-15 10:28N 49°18' W 123°05'0 0.3
2018-Jun-15 09:55N 49°18' W 123°06'0 0.0
2018-Jun-15 09:28N 49°18' W 123°06'0 0.1
2018-Jun-15 08:58N 49°18' W 123°06'0 0.0
2018-Jun-15 08:28N 49°18' W 123°06'0 0.1
2018-Jun-15 07:58N 49°18' W 123°06'0 0.0
2018-Jun-15 07:28N 49°18' W 123°06'0 0.1
2018-Jun-15 06:58N 49°18' W 123°06'0 0.1
2018-Jun-15 06:25N 49°18' W 123°06'0 0.0
2018-Jun-15 05:58N 49°18' W 123°06'0 0.0
2018-Jun-15 05:28N 49°18' W 123°06'0 0.2
2018-Jun-15 04:58N 49°18' W 123°05'0 0.2
2018-Jun-15 04:28N 49°18' W 123°05'0 0.1
2018-Jun-15 03:58N 49°18' W 123°05'0 0.0
2018-Jun-15 03:28N 49°18' W 123°05'0 0.0
2018-Jun-15 02:58N 49°18' W 123°05'0 0.1
2018-Jun-15 02:25N 49°18' W 123°05'0 0.0
2018-Jun-15 01:58N 49°18' W 123°05'0 0.1
2018-Jun-15 01:28N 49°18' W 123°05'0 0.3
2018-Jun-15 00:58N 49°18' W 123°06'0 0.0
2018-Jun-15 00:28N 49°18' W 123°06'0 0.1
2018-Jun-14 23:58N 49°18' W 123°06'0 0.1
2018-Jun-14 23:28N 49°18' W 123°06'0 0.0
2018-Jun-14 22:58N 49°18' W 123°06'0 0.2
2018-Jun-14 22:28N 49°18' W 123°06'0 0.0
2018-Jun-14 21:58N 49°18' W 123°06'0 0.1
2018-Jun-14 21:28N 49°18' W 123°06'0 0.0
2018-Jun-14 20:58N 49°18' W 123°06'0 0.0
2018-Jun-14 20:28N 49°18' W 123°06'0 0.1
2018-Jun-14 19:58N 49°18' W 123°06'0 0.1
2018-Jun-14 19:28N 49°18' W 123°06'0 0.1
2018-Jun-14 18:58N 49°18' W 123°06'0 0.0
2018-Jun-14 18:28N 49°18' W 123°06'0 0.0
2018-Jun-14 17:58N 49°18' W 123°06'0 0.0
2018-Jun-14 17:28N 49°18' W 123°06'0 0.0
2018-Jun-14 16:58N 49°18' W 123°06'0 0.0
2018-Jun-14 16:28N 49°18' W 123°06'0 0.1
2018-Jun-14 16:00N 49°18' W 123°06'1 1.1
2018-Jun-14 15:30N 49°18' W 123°06'3 6.5
2018-Jun-14 15:00N 49°19' W 123°11'510.0
2018-Jun-14 14:29N 49°16' W 123°18'611.5
2018-Jun-14 13:59N 49°11' W 123°20'611.3
2018-Jun-14 13:28N 49°05' W 123°20'711.5
2018-Jun-14 12:52N 48°60' W 123°13'411.6
2018-Jun-14 12:30N 48°57' W 123°09'1110.0
2018-Jun-14 11:21N 48°46' W 123°03'412.6
2018-Jun-14 11:00N 48°44' W 123°09'510.9
2018-Jun-14 10:30N 48°40' W 123°15'612.5
2018-Jun-14 10:00N 48°34' W 123°13'612.7
2018-Jun-14 09:30N 48°28' W 123°10'612.0
2018-Jun-14 09:01N 48°23' W 123°15'510.0
2018-Jun-14 08:31N 48°22' W 123°23'811.0
2018-Jun-14 07:48N 48°14' W 123°26'3311.4
2018-Jun-14 04:54N 48°20' W 124°16'511.5
2018-Jun-14 04:29N 48°22' W 124°22'611.5
2018-Jun-14 04:01N 48°24' W 124°30'611.4
2018-Jun-14 03:31N 48°27' W 124°37'611.1
2018-Jun-14 03:00N 48°29' W 124°45'611.2
2018-Jun-14 02:30N 48°29' W 124°54'  

Dump ship's entire track history